Time;durP1;ratioP1;P1;durP2;ratioP2;P2;SDS_P1;SDS_P2;PMS_P1;PMS_P2;Temp;Humidity;BMP_temperature;BMP_pressure;BME280_temperature;BME280_humidity;BME280_pressure;Samples;Min_cycle;Max_cycle;Signal;HPM_P1;HPM_P2
2021/05/21 00:01:46;;;;;;;1.80;1.00;;;;;;;13.05;57.58;95646.84;4958911;28;20260;-86
2021/05/21 00:04:12;;;;;;;0.80;0.80;;;;;;;13.01;58.04;95649.97;4954520;29;20233;-88
2021/05/21 00:06:38;;;;;;;2.73;0.90;;;;;;;13.00;58.38;95644.03;4966501;28;20200;-86
2021/05/21 00:09:05;;;;;;;1.07;1.00;;;;;;;13.02;57.97;95636.06;4964499;28;20277;-83
2021/05/21 00:11:31;;;;;;;2.03;1.00;;;;;;;12.93;58.54;95638.00;4955066;28;20267;-86
2021/05/21 00:13:57;;;;;;;1.40;1.10;;;;;;;12.89;58.15;95626.47;4955248;29;20686;-85
2021/05/21 00:16:24;;;;;;;2.40;1.00;;;;;;;12.86;58.58;95621.69;4970971;28;20412;-84
2021/05/21 00:18:51;;;;;;;1.60;1.10;;;;;;;12.90;58.31;95617.69;4974235;28;20722;-86
2021/05/21 00:21:17;;;;;;;1.30;1.10;;;;;;;12.92;58.62;95620.09;4957825;28;20525;-86
2021/05/21 00:23:43;;;;;;;1.00;0.90;;;;;;;12.90;58.79;95609.94;4953925;29;20204;-88
2021/05/21 00:26:09;;;;;;;3.70;1.00;;;;;;;12.87;58.66;95607.75;4962379;28;20216;-86
2021/05/21 00:28:35;;;;;;;1.90;0.90;;;;;;;12.82;58.73;95602.38;4973936;28;20204;-84
2021/05/21 00:31:01;;;;;;;1.53;0.80;;;;;;;12.78;58.61;95601.94;4954233;28;20225;-85
2021/05/21 00:33:28;;;;;;;0.80;0.80;;;;;;;12.77;58.53;95592.59;4953770;29;20232;-85
2021/05/21 00:35:54;;;;;;;0.90;0.90;;;;;;;12.79;58.75;95584.66;4970873;28;20204;-84
2021/05/21 00:38:20;;;;;;;2.33;0.97;;;;;;;12.77;59.18;95584.03;4973390;28;20570;-87
2021/05/21 00:40:46;;;;;;;0.70;0.70;;;;;;;12.77;58.91;95578.88;4956881;28;20313;-86
2021/05/21 00:43:15;;;;;;;0.90;0.90;;;;;;;12.74;59.03;95571.50;4954659;28;20268;-87
2021/05/21 00:45:41;;;;;;;0.80;0.80;;;;;;;12.71;59.02;95579.63;4973684;28;20246;-87
2021/05/21 00:48:07;;;;;;;1.03;0.90;;;;;;;12.62;59.34;95563.50;4962784;28;20201;-86
2021/05/21 00:50:34;;;;;;;0.90;0.90;;;;;;;12.58;59.37;95569.22;4957231;29;20209;-87
2021/05/21 00:53:04;;;;;;;1.00;0.90;;;;;;;12.58;59.24;95570.00;4956941;28;20200;-87
2021/05/21 00:55:30;;;;;;;1.03;0.93;;;;;;;12.57;59.80;95560.66;4958726;29;20273;-87
2021/05/21 00:57:56;;;;;;;1.83;0.97;;;;;;;12.61;59.63;95563.69;4970139;28;20212;-86
2021/05/21 01:00:22;;;;;;;2.30;1.00;;;;;;;12.62;59.20;95563.50;4977178;28;20282;-86
2021/05/21 01:02:48;;;;;;;0.90;0.90;;;;;;;12.64;59.11;95564.09;4962990;28;20217;-86
2021/05/21 01:05:15;;;;;;;2.80;0.90;;;;;;;12.63;59.65;95562.50;4956802;28;20873;-86
2021/05/21 01:07:41;;;;;;;0.93;0.90;;;;;;;12.63;59.94;95553.97;4968162;28;20196;-84
2021/05/21 01:10:08;;;;;;;0.80;0.80;;;;;;;12.62;60.02;95557.53;4958383;28;20283;-87
2021/05/21 01:12:34;;;;;;;0.77;0.77;;;;;;;12.56;60.04;95550.53;4971179;28;20232;-84
2021/05/21 01:15:00;;;;;;;1.23;0.73;;;;;;;12.48;59.93;95536.00;4961375;28;21065;-84
2021/05/21 01:17:26;;;;;;;0.80;0.80;;;;;;;12.51;59.65;95553.66;4970996;28;20200;-86
2021/05/21 01:19:53;;;;;;;0.80;0.80;;;;;;;12.49;60.21;95549.69;4974627;28;20211;-87
2021/05/21 01:22:22;;;;;;;0.70;0.70;;;;;;;12.34;60.82;95548.00;4962839;28;20562;-87
2021/05/21 01:24:48;;;;;;;0.80;0.80;;;;;;;12.40;60.24;95538.72;4957414;29;20890;-85
2021/05/21 01:27:16;;;;;;;0.80;0.80;;;;;;;12.42;60.40;95532.38;4958793;28;20209;-88
2021/05/21 01:29:42;;;;;;;3.47;0.80;;;;;;;12.45;60.17;95532.00;4957026;29;20201;-85
2021/05/21 01:32:10;;;;;;;0.80;0.80;;;;;;;12.44;60.58;95545.09;4972607;28;20702;-85
2021/05/21 01:34:38;;;;;;;0.70;0.70;;;;;;;12.42;60.46;95534.97;4976969;28;20228;-85
2021/05/21 01:37:04;;;;;;;1.37;0.80;;;;;;;12.32;60.99;95531.88;4960819;28;20197;-85
2021/05/21 01:39:35;;;;;;;0.80;0.80;;;;;;;12.35;60.97;95528.13;4958908;28;20205;-86
2021/05/21 01:42:01;;;;;;;0.70;0.70;;;;;;;12.32;60.90;95524.16;4974959;28;20216;-85
2021/05/21 01:44:28;;;;;;;0.83;0.80;;;;;;;12.20;62.10;95523.06;4974659;28;20618;-85
2021/05/21 01:46:54;;;;;;;1.13;0.67;;;;;;;12.19;61.99;95521.47;4975021;28;20204;-86
2021/05/21 01:49:20;;;;;;;1.07;0.80;;;;;;;12.18;62.52;95522.47;4970821;28;20212;-86
2021/05/21 01:51:54;;;;;;;0.80;0.80;;;;;;;12.20;62.09;95517.13;4954796;28;20224;-87
2021/05/21 01:54:20;;;;;;;0.80;0.80;;;;;;;12.20;62.13;95501.63;4956278;29;20303;-86
2021/05/21 01:56:48;;;;;;;1.17;0.90;;;;;;;12.17;62.11;95497.63;4973414;28;20204;-87
2021/05/21 01:59:14;;;;;;;1.37;0.97;;;;;;;12.17;62.63;95489.09;4974380;28;20247;-86
2021/05/21 02:01:40;;;;;;;1.37;0.90;;;;;;;12.02;62.54;95484.84;4956547;28;20280;-87
2021/05/21 02:04:06;;;;;;;1.90;1.23;;;;;;;12.04;62.44;95482.88;4955214;29;20696;-88
2021/05/21 02:06:34;;;;;;;0.67;0.67;;;;;;;12.07;62.54;95482.50;4971495;28;20279;-85
2021/05/21 02:09:00;;;;;;;0.80;0.80;;;;;;;12.04;62.06;95476.91;4966929;28;20200;-83
2021/05/21 02:11:26;;;;;;;0.73;0.73;;;;;;;12.04;62.44;95474.31;4973822;28;20894;-87
2021/05/21 02:13:53;;;;;;;1.00;0.80;;;;;;;11.98;62.62;95485.38;4968885;28;20559;-85
2021/05/21 02:16:19;;;;;;;1.30;0.90;;;;;;;12.01;62.41;95472.91;4937390;28;20201;-87
2021/05/21 02:18:45;;;;;;;0.60;0.60;;;;;;;11.98;62.59;95475.06;4956418;29;20208;-87
2021/05/21 02:21:11;;;;;;;0.70;0.70;;;;;;;12.05;62.31;95473.34;4972995;28;20314;-86
2021/05/21 02:23:38;;;;;;;0.80;0.80;;;;;;;12.04;62.10;95466.59;4974822;28;20243;-88
2021/05/21 02:26:04;;;;;;;0.80;0.80;;;;;;;12.07;62.12;95459.28;4958330;28;20221;-85
2021/05/21 02:28:30;;;;;;;0.83;0.83;;;;;;;12.05;61.89;95460.44;4955677;29;20613;-86
2021/05/21 02:30:57;;;;;;;0.87;0.87;;;;;;;12.09;62.00;95451.34;4969670;28;20224;-84
2021/05/21 02:33:23;;;;;;;0.87;0.67;;;;;;;12.14;61.66;95456.72;4955257;28;21171;-88
2021/05/21 02:35:51;;;;;;;0.87;0.80;;;;;;;12.14;61.50;95448.19;4969110;28;20232;-86
2021/05/21 02:38:17;;;;;;;0.80;0.70;;;;;;;12.16;61.37;95447.00;4974103;28;20208;-88
2021/05/21 02:40:45;;;;;;;0.70;0.70;;;;;;;12.10;61.50;95446.00;4955096;28;20205;-85
2021/05/21 02:43:11;;;;;;;1.00;0.73;;;;;;;12.10;61.34;95440.03;4954862;29;20287;-87
2021/05/21 02:45:37;;;;;;;0.87;0.70;;;;;;;12.10;61.35;95456.31;4971959;28;20223;-87
2021/05/21 02:48:04;;;;;;;0.70;0.70;;;;;;;12.03;61.48;95460.63;4955350;29;20216;-86
2021/05/21 02:50:30;;;;;;;0.87;0.77;;;;;;;11.98;61.50;95450.06;4956698;28;20201;-86
2021/05/21 02:52:56;;;;;;;0.87;0.67;;;;;;;11.97;61.19;95447.66;4954790;28;20205;-85
2021/05/21 02:55:22;;;;;;;1.87;0.80;;;;;;;12.00;61.20;95442.94;4956502;28;20845;-89
2021/05/21 02:57:48;;;;;;;0.70;0.70;;;;;;;12.02;60.96;95453.06;4955513;29;20232;-86
2021/05/21 03:00:15;;;;;;;0.70;0.70;;;;;;;12.06;61.06;95436.22;4963434;28;20200;-85
2021/05/21 03:02:41;;;;;;;1.13;0.63;;;;;;;12.09;61.23;95435.88;4969750;28;20225;-86
2021/05/21 03:05:09;;;;;;;0.60;0.60;;;;;;;12.14;60.82;95437.84;4966731;28;20278;-86
2021/05/21 03:07:35;;;;;;;0.70;0.70;;;;;;;12.17;60.42;95440.84;4973219;28;20265;-86
2021/05/21 03:10:01;;;;;;;0.70;0.70;;;;;;;12.08;60.78;95447.16;4957003;28;20617;-86
2021/05/21 03:12:27;;;;;;;0.80;0.70;;;;;;;12.03;60.49;95445.16;4952893;28;20268;-86
2021/05/21 03:14:53;;;;;;;0.77;0.77;;;;;;;12.06;60.68;95441.41;4959862;28;20890;-86
2021/05/21 03:17:19;;;;;;;0.60;0.60;;;;;;;12.05;60.72;95437.22;4954878;29;20712;-87
2021/05/21 03:19:46;;;;;;;0.90;0.70;;;;;;;12.07;60.79;95430.09;4971535;28;20205;-83
2021/05/21 03:22:13;;;;;;;0.50;0.50;;;;;;;12.02;60.56;95420.31;4933935;29;20230;-87
2021/05/21 03:24:39;;;;;;;1.40;0.73;;;;;;;12.00;60.76;95419.72;4968228;28;20227;-85
2021/05/21 03:27:05;;;;;;;1.60;0.77;;;;;;;12.00;60.63;95421.50;4974623;28;20433;-86
2021/05/21 03:29:31;;;;;;;1.70;0.90;;;;;;;11.97;60.94;95420.09;4957903;28;20208;-84
2021/05/21 03:31:57;;;;;;;0.63;0.63;;;;;;;12.02;60.62;95414.38;4952667;29;20221;-85
2021/05/21 03:34:23;;;;;;;1.00;0.90;;;;;;;11.98;60.67;95413.16;4965802;28;20243;-86
2021/05/21 03:36:49;;;;;;;1.73;0.77;;;;;;;11.96;60.82;95412.53;4954400;29;20205;-86
2021/05/21 03:39:16;;;;;;;1.00;0.90;;;;;;;11.83;61.36;95404.72;4953662;28;20212;-86
2021/05/21 03:41:42;;;;;;;0.67;0.60;;;;;;;11.81;61.15;95402.31;4952878;29;20295;-84
2021/05/21 03:44:08;;;;;;;0.83;0.70;;;;;;;11.84;60.60;95403.72;4953360;29;20201;-85
2021/05/21 03:46:34;;;;;;;0.73;0.73;;;;;;;11.87;60.77;95391.25;4954294;29;20221;-84
2021/05/21 03:49:02;;;;;;;0.70;0.70;;;;;;;11.90;60.81;95390.09;4958527;28;20257;-86
2021/05/21 03:51:28;;;;;;;0.70;0.70;;;;;;;11.86;61.10;95384.50;4969670;28;20216;-86
2021/05/21 03:53:55;;;;;;;0.70;0.70;;;;;;;11.97;60.90;95388.31;4961005;28;20283;-86
2021/05/21 03:56:22;;;;;;;0.90;0.70;;;;;;;12.04;60.79;95392.56;4954381;29;20200;-88
2021/05/21 03:58:48;;;;;;;0.80;0.80;;;;;;;12.08;60.60;95382.66;4964025;28;20237;-86
2021/05/21 04:01:14;;;;;;;0.80;0.80;;;;;;;12.10;60.28;95372.94;4973167;28;20395;-87
2021/05/21 04:03:40;;;;;;;0.97;0.80;;;;;;;12.09;60.73;95374.72;4963219;28;20208;-86
2021/05/21 04:06:06;;;;;;;1.63;0.73;;;;;;;12.14;60.32;95376.72;4953336;29;20229;-85
2021/05/21 04:08:32;;;;;;;0.90;0.80;;;;;;;12.15;60.66;95374.94;4956665;28;20212;-84
2021/05/21 04:10:59;;;;;;;0.97;0.73;;;;;;;12.15;60.12;95370.56;4952963;29;20233;-89
2021/05/21 04:13:26;;;;;;;1.07;0.90;;;;;;;12.10;60.24;95360.03;4954227;28;20285;-86
2021/05/21 04:15:52;;;;;;;1.93;0.80;;;;;;;12.05;59.70;95380.44;4952499;29;20248;-87
2021/05/21 04:18:17;;;;;;;0.80;0.70;;;;;;;12.09;59.96;95372.13;4960687;28;20204;-88
2021/05/21 04:20:43;;;;;;;0.70;0.70;;;;;;;12.12;59.96;95370.16;4973824;28;20262;-87
2021/05/21 04:23:10;;;;;;;0.87;0.80;;;;;;;12.09;59.92;95366.97;4969641;28;20212;-85
2021/05/21 04:25:36;;;;;;;1.00;0.90;;;;;;;12.09;60.09;95368.75;4956075;29;20275;-84
2021/05/21 04:28:02;;;;;;;1.20;0.80;;;;;;;12.15;59.94;95367.97;4958344;28;20197;-84
2021/05/21 04:30:29;;;;;;;1.63;0.90;;;;;;;12.23;59.58;95362.66;4974787;28;20204;-87
2021/05/21 04:32:55;;;;;;;0.70;0.70;;;;;;;12.26;59.42;95370.03;4971827;28;20266;-87
2021/05/21 04:35:21;;;;;;;1.20;1.10;;;;;;;12.29;59.14;95361.91;4958930;28;20800;-86
2021/05/21 04:37:47;;;;;;;0.63;0.60;;;;;;;12.39;58.78;95359.75;4955977;28;20212;-86
2021/05/21 04:40:14;;;;;;;1.77;0.70;;;;;;;12.36;58.57;95360.13;4974063;28;20199;-87
2021/05/21 04:42:40;;;;;;;0.90;0.80;;;;;;;12.43;59.09;95362.75;4973513;28;20742;-86
2021/05/21 04:45:18;;;;;;;2.17;0.80;;;;;;;12.44;58.25;95366.94;4960624;28;20221;-84
2021/05/21 04:47:55;;;;;;;1.47;0.70;;;;;;;12.54;58.17;95362.19;4956601;28;20243;-87
2021/05/21 04:59:17;;;;;;;3.93;1.40;;;;;;;13.13;59.14;95366.69;4898167;29;20294;-88
2021/05/21 05:01:47;;;;;;;1.80;1.10;;;;;;;13.33;59.78;95364.94;4957987;28;20220;-88
2021/05/21 05:04:15;;;;;;;1.53;0.90;;;;;;;13.47;58.46;95358.78;4958460;29;20205;-88
2021/05/21 05:06:44;;;;;;;1.13;0.87;;;;;;;13.47;55.64;95371.69;4959727;28;20239;-87
2021/05/21 05:09:10;;;;;;;0.83;0.83;;;;;;;13.37;55.27;95360.97;4954121;29;20220;-85
2021/05/21 05:11:39;;;;;;;0.90;0.70;;;;;;;13.33;56.21;95371.91;4957268;29;20233;-86
2021/05/21 05:14:05;;;;;;;2.00;0.90;;;;;;;13.24;55.32;95365.34;4959155;29;20201;-87
2021/05/21 05:16:36;;;;;;;1.90;0.80;;;;;;;13.18;55.73;95363.53;4958908;28;20310;-88
2021/05/21 05:19:03;;;;;;;0.93;0.90;;;;;;;13.17;55.86;95360.16;4958072;28;20209;-86
2021/05/21 05:21:41;;;;;;;2.20;0.80;;;;;;;13.19;56.02;95368.53;4955601;29;20229;-86
2021/05/21 05:24:36;;;;;;;3.13;0.90;;;;;;;13.30;55.43;95354.19;4954076;28;20212;-86
2021/05/21 05:27:08;;;;;;;1.33;0.70;;;;;;;13.41;55.62;95353.63;4952780;28;20213;-87
2021/05/21 05:29:39;;;;;;;1.40;0.70;;;;;;;13.48;55.73;95356.97;4954508;29;20205;-88
2021/05/21 05:32:05;;;;;;;2.70;0.80;;;;;;;13.41;55.00;95361.38;4944294;28;20234;-87
2021/05/21 05:34:32;;;;;;;3.57;1.10;;;;;;;13.36;55.23;95366.34;4949763;28;20222;-87
2021/05/21 05:37:13;;;;;;;;;;;;;;;;;;;;;
2021/05/21 05:39:43;;;;;;;1.97;0.90;;;;;;;13.34;55.26;95360.56;4920867;29;20571;-88
2021/05/21 05:42:09;;;;;;;1.80;0.80;;;;;;;13.41;55.76;95351.03;4958123;29;21056;-87
2021/05/21 05:44:35;;;;;;;1.00;1.00;;;;;;;13.42;55.40;95345.66;4958047;29;20208;-86
2021/05/21 05:47:01;;;;;;;2.03;1.20;;;;;;;13.43;54.99;95343.88;4955296;29;20989;-89
2021/05/21 05:49:27;;;;;;;1.37;1.00;;;;;;;13.43;54.44;95339.50;4958135;28;20240;-88
2021/05/21 05:51:53;;;;;;;3.30;1.50;;;;;;;13.40;54.53;95333.91;4959429;29;20267;-86
2021/05/21 05:54:20;;;;;;;1.20;0.80;;;;;;;13.46;53.92;95344.28;4961696;28;20209;-85
2021/05/21 05:56:46;;;;;;;1.37;1.00;;;;;;;13.44;53.89;95335.91;4960117;28;20584;-86
2021/05/21 05:59:12;;;;;;;2.67;0.90;;;;;;;13.43;53.53;95333.53;4959837;29;20200;-88
2021/05/21 06:01:38;;;;;;;0.97;0.87;;;;;;;13.49;53.61;95332.69;4959682;29;20279;-88
2021/05/21 06:04:04;;;;;;;1.00;0.80;;;;;;;13.63;53.45;95326.53;4960571;29;20219;-89
2021/05/21 06:06:31;;;;;;;1.17;0.80;;;;;;;13.64;53.19;95317.00;4960063;28;20597;-88
2021/05/21 06:09:00;;;;;;;0.80;0.80;;;;;;;13.76;53.01;95326.50;4959775;28;20205;-87
2021/05/21 06:11:27;;;;;;;5.53;1.00;;;;;;;13.79;52.59;95313.16;4958826;29;20304;-85
2021/05/21 06:13:54;;;;;;;1.53;0.63;;;;;;;13.82;52.15;95317.16;4959108;29;20212;-88
2021/05/21 06:16:21;;;;;;;0.90;0.70;;;;;;;13.88;51.81;95310.34;4959373;29;20827;-88
2021/05/21 06:18:47;;;;;;;1.70;0.90;;;;;;;13.97;51.83;95312.53;4956635;29;20857;-85
2021/05/21 06:21:21;;;;;;;1.40;0.83;;;;;;;14.02;51.39;95296.38;4956929;29;20231;-86
2021/05/21 06:23:49;;;;;;;3.40;1.03;;;;;;;14.10;51.58;95302.13;4953618;29;20241;-85
2021/05/21 06:26:29;;;;;;;1.23;0.73;;;;;;;14.18;51.58;95301.09;4958713;29;20233;-86
2021/05/21 06:28:56;;;;;;;0.80;0.80;;;;;;;14.29;51.63;95308.22;4958782;29;20224;-85
2021/05/21 06:31:23;;;;;;;1.43;1.00;;;;;;;14.25;50.63;95304.44;4957793;29;20263;-87
2021/05/21 06:33:49;;;;;;;2.00;0.80;;;;;;;14.34;51.40;95297.25;4958094;29;20221;-87
2021/05/21 06:36:15;;;;;;;2.20;0.70;;;;;;;14.45;51.31;95294.81;4959303;29;20193;-88
2021/05/21 06:38:50;;;;;;;1.57;0.93;;;;;;;14.50;50.67;95301.97;4956782;29;20197;-88
2021/05/21 06:41:16;;;;;;;0.90;0.70;;;;;;;14.49;50.12;95306.34;4956224;29;20291;-85
2021/05/21 06:43:43;;;;;;;0.80;0.70;;;;;;;14.47;49.96;95294.59;4956008;28;20231;-89
2021/05/21 06:46:09;;;;;;;0.93;0.70;;;;;;;14.50;50.87;95294.19;4951587;29;20216;-86
2021/05/21 06:48:38;;;;;;;3.60;0.80;;;;;;;14.63;51.18;95288.13;4958322;29;20201;-87
2021/05/21 06:51:07;;;;;;;1.17;0.80;;;;;;;14.68;51.18;95280.53;4957407;29;20233;-86
2021/05/21 06:53:34;;;;;;;1.83;0.80;;;;;;;14.74;50.35;95290.09;4957942;29;20197;-88
2021/05/21 06:56:05;;;;;;;0.87;0.80;;;;;;;14.79;50.02;95277.28;4958366;29;20205;-88
2021/05/21 06:58:31;;;;;;;1.97;1.33;;;;;;;14.88;50.12;95280.41;4957719;29;20228;-86
2021/05/21 07:00:59;;;;;;;2.50;0.90;;;;;;;14.80;49.39;95281.47;4958369;29;20221;-85
2021/05/21 07:03:31;;;;;;;2.17;0.80;;;;;;;14.94;50.17;95270.00;4958071;29;20232;-89
2021/05/21 07:06:00;;;;;;;1.53;1.00;;;;;;;14.97;50.39;95276.56;4957902;28;20660;-89
2021/05/21 07:08:28;;;;;;;1.23;0.83;;;;;;;15.05;50.61;95271.91;4953687;29;20197;-89
2021/05/21 07:10:54;;;;;;;3.03;1.00;;;;;;;15.06;50.20;95264.91;4939494;29;20320;-89
2021/05/21 07:13:21;;;;;;;1.60;0.87;;;;;;;15.15;50.13;95261.84;4940215;29;20716;-89
2021/05/21 07:15:47;;;;;;;2.20;0.80;;;;;;;15.23;49.47;95262.56;4958910;29;20736;-85
2021/05/21 07:18:15;;;;;;;1.23;0.93;;;;;;;15.26;49.42;95262.94;4959809;29;20205;-87
2021/05/21 07:21:01;;;;;;;1.13;0.80;;;;;;;15.22;48.71;95272.16;4959371;29;20260;-86
2021/05/21 07:23:27;;;;;;;0.70;0.70;;;;;;;15.33;48.41;95257.72;4959799;28;20209;-87
2021/05/21 07:25:58;;;;;;;0.60;0.60;;;;;;;15.46;48.34;95255.78;4959214;28;20232;-86
2021/05/21 07:28:25;;;;;;;1.87;0.70;;;;;;;15.56;48.27;95244.94;4959249;28;20212;-86
2021/05/21 07:30:54;;;;;;;0.63;0.63;;;;;;;15.53;47.63;95243.53;4957611;28;20310;-86
2021/05/21 07:33:20;;;;;;;1.60;0.80;;;;;;;15.66;47.73;95244.44;4956658;28;20792;-86
2021/05/21 07:35:46;;;;;;;1.67;0.80;;;;;;;15.72;47.92;95244.38;4957507;29;20216;-86
2021/05/21 07:38:13;;;;;;;1.20;0.60;;;;;;;15.74;47.90;95237.16;4957438;29;20299;-88
2021/05/21 07:40:39;;;;;;;0.80;0.80;;;;;;;15.66;47.24;95241.84;4956279;29;20209;-88
2021/05/21 07:43:36;;;;;;;1.52;0.70;;;;;;;15.74;47.40;95237.16;4957950;29;20212;-86
2021/05/21 07:46:11;;;;;;;0.70;0.70;;;;;;;15.71;46.99;95242.78;4932858;29;20244;-85
2021/05/21 07:48:37;;;;;;;2.20;0.70;;;;;;;15.76;47.57;95240.34;4956868;29;20212;-86
2021/05/21 07:51:04;;;;;;;2.28;0.70;;;;;;;15.82;47.39;95249.03;4957839;29;20224;-88
2021/05/21 07:53:33;;;;;;;1.53;0.90;;;;;;;15.93;50.03;95253.53;4953647;29;20276;-84
2021/05/21 07:55:59;;;;;;;0.70;0.70;;;;;;;16.14;50.40;95253.06;4953921;28;20200;-84
2021/05/21 07:58:25;;;;;;;0.88;0.73;;;;;;;16.28;49.69;95251.09;4954211;29;20197;-85
2021/05/21 08:00:52;;;;;;;1.02;0.60;;;;;;;16.35;48.65;95251.81;4952995;29;20211;-84
2021/05/21 08:03:18;;;;;;;1.20;0.88;;;;;;;16.39;48.23;95242.53;4950393;28;21035;-83
2021/05/21 08:05:44;;;;;;;1.53;0.70;;;;;;;16.32;47.76;95225.47;4951613;28;20692;-85
2021/05/21 08:08:10;;;;;;;0.85;0.80;;;;;;;16.40;48.67;95227.75;4954346;29;20252;-86
2021/05/21 08:10:37;;;;;;;1.10;1.00;;;;;;;16.36;47.55;95231.78;4953430;29;20209;-85
2021/05/21 08:13:09;;;;;;;1.52;1.35;;;;;;;16.24;46.81;95223.97;4953228;29;20244;-87
2021/05/21 08:15:42;;;;;;;4.22;0.98;;;;;;;16.12;46.91;95220.53;4939004;29;20261;-87
2021/05/21 08:18:10;;;;;;;2.17;1.00;;;;;;;16.10;46.90;95217.38;4951073;29;20256;-88
2021/05/21 08:20:37;;;;;;;1.13;0.90;;;;;;;16.01;47.51;95216.06;4956673;29;20225;-84
2021/05/21 08:23:09;;;;;;;3.80;1.30;;;;;;;15.96;47.49;95218.56;4956931;29;20227;-87
2021/05/21 08:25:35;;;;;;;1.55;1.00;;;;;;;15.81;46.29;95218.91;4957922;29;20253;-88
2021/05/21 08:28:03;;;;;;;2.00;0.90;;;;;;;15.80;47.28;95225.09;4955283;29;20724;-87
2021/05/21 08:30:30;;;;;;;2.13;0.80;;;;;;;15.75;46.79;95215.41;4953240;29;20205;-86
2021/05/21 08:32:56;;;;;;;1.93;0.90;;;;;;;15.78;46.75;95227.13;4949166;29;20236;-88
2021/05/21 08:35:24;;;;;;;1.23;0.90;;;;;;;15.73;46.36;95221.81;4956544;29;20212;-88
2021/05/21 08:37:50;;;;;;;2.78;0.80;;;;;;;15.68;46.39;95213.88;4956282;29;20193;-85
2021/05/21 08:40:22;;;;;;;0.60;0.60;;;;;;;15.70;45.78;95217.03;4955985;29;20205;-85
2021/05/21 08:42:57;;;;;;;0.97;0.70;;;;;;;15.63;45.92;95211.13;4956506;29;20224;-87
2021/05/21 08:45:28;;;;;;;1.07;0.90;;;;;;;15.61;46.83;95207.94;4955701;29;20212;-86
2021/05/21 08:47:55;;;;;;;2.03;0.80;;;;;;;15.56;47.77;95206.03;4957415;29;20212;-87
2021/05/21 08:50:23;;;;;;;0.87;0.77;;;;;;;15.57;47.43;95205.03;4957262;29;20266;-84
2021/05/21 08:52:50;;;;;;;1.00;0.80;;;;;;;15.57;47.87;95205.03;4956727;29;20225;-87
2021/05/21 08:55:17;;;;;;;1.60;0.73;;;;;;;15.66;48.10;95219.28;4956843;29;20197;-85
2021/05/21 08:57:43;;;;;;;1.48;0.90;;;;;;;15.66;47.86;95197.72;4954989;29;20209;-85
2021/05/21 09:00:11;;;;;;;0.80;0.80;;;;;;;15.66;48.25;95208.91;4957105;29;20197;-85
2021/05/21 09:02:48;;;;;;;1.23;0.80;;;;;;;15.76;48.45;95201.41;4956640;29;20227;-86
2021/05/21 09:05:14;;;;;;;0.87;0.80;;;;;;;15.78;48.27;95195.97;4956888;29;20323;-88
2021/05/21 09:07:41;;;;;;;0.80;0.80;;;;;;;15.86;47.40;95187.91;4959984;28;20295;-87
2021/05/21 09:10:11;;;;;;;0.97;0.80;;;;;;;15.89;47.28;95185.66;4942812;29;20264;-85
2021/05/21 09:12:41;;;;;;;1.90;1.00;;;;;;;15.96;47.71;95195.97;4958611;29;20229;-86
2021/05/21 09:15:18;;;;;;;0.80;0.80;;;;;;;16.08;47.58;95194.22;4959008;29;20278;-87
2021/05/21 09:18:00;;;;;;;1.25;0.80;;;;;;;16.16;46.96;95193.13;4959096;29;20197;-87
2021/05/21 09:20:28;;;;;;;0.93;0.70;;;;;;;16.22;47.05;95190.41;4943037;29;20197;-88
2021/05/21 09:23:08;;;;;;;4.27;1.00;;;;;;;16.18;46.54;95186.66;4957007;29;20229;-87
2021/05/21 09:25:36;;;;;;;2.15;0.80;;;;;;;16.23;46.04;95194.59;4956602;29;20229;-87
2021/05/21 09:28:03;;;;;;;2.22;0.73;;;;;;;16.33;46.59;95191.47;4958503;29;20220;-85
2021/05/21 09:30:33;;;;;;;1.25;0.85;;;;;;;16.45;46.98;95176.69;4958788;29;20205;-88
2021/05/21 09:33:07;;;;;;;0.70;0.70;;;;;;;16.57;46.18;95174.91;4958987;29;20255;-87
2021/05/21 09:35:55;;;;;;;0.70;0.70;;;;;;;16.67;45.52;95173.59;4960790;28;20220;-85
2021/05/21 09:38:26;;;;;;;0.80;0.80;;;;;;;16.71;45.34;95185.16;4953834;29;20328;-88
2021/05/21 09:40:54;;;;;;;2.53;0.80;;;;;;;16.76;45.59;95193.06;4958494;29;20227;-85
2021/05/21 09:43:22;;;;;;;0.73;0.70;;;;;;;16.81;45.65;95196.56;4958634;29;20197;-89
2021/05/21 09:45:48;;;;;;;2.60;0.70;;;;;;;16.99;45.85;95171.47;4960424;29;20232;-86
2021/05/21 09:48:30;;;;;;;0.70;0.70;;;;;;;16.97;44.89;95170.91;4960022;29;20203;-87
2021/05/21 09:51:08;;;;;;;2.88;0.60;;;;;;;17.06;45.67;95164.38;4958608;29;20209;-86
2021/05/21 09:54:05;;;;;;;1.15;0.80;;;;;;;17.12;46.14;95151.25;4957213;28;20237;-87
2021/05/21 09:56:31;;;;;;;1.98;0.70;;;;;;;17.19;46.17;95132.91;4957226;29;20201;-86
2021/05/21 09:59:01;;;;;;;1.30;0.80;;;;;;;17.20;45.98;95135.28;4959293;29;20225;-87
2021/05/21 10:01:28;;;;;;;2.38;0.70;;;;;;;17.22;45.51;95137.66;4958417;29;20558;-88
2021/05/21 10:03:56;;;;;;;2.05;0.60;;;;;;;17.20;45.27;95143.09;4959332;29;20635;-89
2021/05/21 10:06:23;;;;;;;1.88;0.70;;;;;;;17.18;45.97;95152.13;4956762;29;20225;-88
2021/05/21 10:08:56;;;;;;;1.55;0.60;;;;;;;17.09;46.17;95158.72;4955308;29;20578;-87
2021/05/21 10:11:23;;;;;;;2.78;0.90;;;;;;;17.03;47.32;95160.41;4954344;28;20295;-85
2021/05/21 10:13:49;;;;;;;3.72;0.80;;;;;;;16.98;47.87;95182.91;4955931;29;20201;-86
2021/05/21 10:19:18;;;;;;;0.68;0.68;;;;;;;16.88;50.11;95202.47;4955637;28;20200;-85
2021/05/21 10:21:46;;;;;;;0.60;0.60;;;;;;;16.82;50.57;95181.75;4955311;29;20282;-85
2021/05/21 10:24:42;;;;;;;2.40;1.42;;;;;;;16.90;51.19;95181.44;4957591;29;20237;-84
2021/05/21 10:27:16;;;;;;;3.38;1.85;;;;;;;16.86;51.95;95180.31;4957903;29;20304;-87
2021/05/21 10:29:50;;;;;;;1.10;0.90;;;;;;;16.91;51.91;95170.03;4958452;29;20268;-88
2021/05/21 10:32:17;;;;;;;1.67;1.00;;;;;;;16.93;52.63;95171.34;4956248;29;20233;-86
2021/05/21 10:34:49;;;;;;;1.50;1.17;;;;;;;16.89;52.21;95179.84;4957982;29;20209;-85
2021/05/21 10:37:19;;;;;;;4.30;1.13;;;;;;;16.91;51.68;95186.41;4956425;29;20235;-86
2021/05/21 10:39:57;;;;;;;5.38;2.67;;;;;;;16.93;53.12;95186.97;4957291;29;20439;-87
2021/05/21 10:42:23;;;;;;;1.65;0.90;;;;;;;16.82;52.06;95197.38;4955183;29;20227;-86
2021/05/21 10:44:51;;;;;;;0.70;0.70;;;;;;;16.71;51.85;95195.56;4954606;29;20205;-86
2021/05/21 10:47:24;;;;;;;1.00;0.80;;;;;;;16.65;51.70;95204.22;4956678;29;20225;-87
2021/05/21 10:50:19;;;;;;;1.00;0.90;;;;;;;16.57;51.81;95210.50;4956417;29;20262;-86
2021/05/21 10:52:59;;;;;;;1.83;0.82;;;;;;;16.48;53.07;95223.03;4954594;29;20228;-87
2021/05/21 10:55:47;;;;;;;2.60;0.98;;;;;;;16.38;54.37;95233.16;4954884;29;20193;-87
2021/05/21 10:58:33;;;;;;;1.58;1.00;;;;;;;16.30;54.36;95233.50;4953246;29;20291;-87
2021/05/21 11:01:25;;;;;;;1.42;1.00;;;;;;;16.17;56.13;95238.84;4950420;29;20229;-87
2021/05/21 11:04:11;;;;;;;6.22;0.93;;;;;;;15.95;57.14;95250.72;4941890;29;20284;-88
2021/05/21 11:06:49;;;;;;;2.67;1.00;;;;;;;15.94;57.98;95249.91;4952269;29;20310;-88
2021/05/21 11:09:22;;;;;;;2.15;0.90;;;;;;;15.81;60.62;95242.25;4954117;29;20252;-89
2021/05/21 11:11:54;;;;;;;2.40;0.95;;;;;;;15.63;61.79;95258.63;4954549;28;20967;-90
2021/05/21 11:14:49;;;;;;;0.90;0.90;;;;;;;15.57;62.50;95264.72;4953123;29;20193;-89
2021/05/21 11:17:22;;;;;;;1.67;0.93;;;;;;;15.48;63.41;95265.94;4952115;29;20220;-88
2021/05/21 11:19:58;;;;;;;2.17;1.02;;;;;;;15.33;64.25;95262.91;4953858;29;20197;-87
2021/05/21 11:22:39;;;;;;;2.90;1.00;;;;;;;15.26;68.14;95269.94;4952559;29;20688;-88
2021/05/21 11:25:20;;;;;;;2.88;0.85;;;;;;;15.30;66.16;95264.13;4955621;29;20205;-87
2021/05/21 11:27:46;;;;;;;1.03;1.00;;;;;;;15.17;68.58;95274.63;4953180;29;20211;-86
2021/05/21 11:30:15;;;;;;;1.77;1.23;;;;;;;15.21;69.42;95280.94;4953673;28;20201;-85
2021/05/21 11:32:47;;;;;;;2.03;1.17;;;;;;;15.25;70.05;95284.72;4935738;29;20236;-85
2021/05/21 11:35:30;;;;;;;;;;;;;;;;;;;;;
2021/05/21 11:38:28;;;;;;;2.03;1.00;;;;;;;15.30;70.86;95273.69;4952743;29;20308;-87
2021/05/21 11:41:02;;;;;;;2.33;1.93;;;;;;;15.30;69.56;95286.66;4950673;29;20205;-85
2021/05/21 11:43:29;;;;;;;1.63;1.17;;;;;;;15.30;70.45;95277.09;4955477;29;20220;-86
2021/05/21 11:46:02;;;;;;;1.20;1.10;;;;;;;15.28;72.07;95289.47;4956992;29;20231;-86
2021/05/21 11:49:18;;;;;;;2.17;1.20;;;;;;;15.18;71.54;95281.41;4959229;29;20236;-86
2021/05/21 12:02:12;;;;;;;;;;;;;;;;;;;;;
2021/05/21 12:08:43;;;;;;;;;;;;;;;;;;;;;
2021/05/21 12:11:42;;;;;;;1.00;0.90;;;;;;;14.60;76.33;95294.56;4949107;29;20229;-85
2021/05/21 12:21:32;;;;;;;0.90;0.90;;;;;;;14.86;80.47;95278.03;4783318;29;20229;-86
2021/05/21 12:24:02;;;;;;;0.97;0.93;;;;;;;14.85;77.02;95269.47;4819378;29;20213;-87